createdAt,value
2018-10-02T00:02:17.671Z,8.50
2018-10-02T00:04:44.831Z,8.69
2018-10-02T00:07:11.744Z,8.56
2018-10-02T00:09:38.648Z,8.50
2018-10-02T00:12:11.346Z,8.56
2018-10-02T00:14:38.268Z,8.38
2018-10-02T00:17:05.521Z,8.50
2018-10-02T00:19:32.510Z,8.69
2018-10-02T00:21:59.560Z,8.50
2018-10-02T00:24:26.487Z,8.56
2018-10-02T00:26:53.390Z,8.63
2018-10-02T00:29:20.326Z,8.69
2018-10-02T00:31:47.582Z,8.38
2018-10-02T00:34:14.474Z,8.38
2018-10-02T00:36:41.434Z,8.56
2018-10-02T00:39:08.369Z,8.50
2018-10-02T00:41:36.199Z,8.56
2018-10-02T00:44:03.117Z,8.38
2018-10-02T00:46:30.624Z,8.44
2018-10-02T00:48:58.484Z,8.25
2018-10-02T00:51:25.401Z,8.31
2018-10-02T00:53:52.849Z,8.19
2018-10-02T00:56:19.763Z,8.38
2018-10-02T00:58:46.746Z,8.06
2018-10-02T01:01:13.712Z,8.44
2018-10-02T01:03:41.782Z,8.31
2018-10-02T01:06:08.716Z,8.44
2018-10-02T01:08:35.866Z,8.31
2018-10-02T01:11:02.770Z,8.00
2018-10-02T01:13:29.664Z,8.00
2018-10-02T01:15:57.253Z,8.00
2018-10-02T01:18:24.443Z,8.25
2018-10-02T01:20:51.864Z,8.25
2018-10-02T01:23:18.808Z,8.13
2018-10-02T01:25:45.757Z,7.94
2018-10-02T01:28:12.690Z,8.38
2018-10-02T01:30:40.491Z,7.69
2018-10-02T01:33:07.406Z,8.00
2018-10-02T01:35:34.409Z,8.06
2018-10-02T01:38:01.317Z,8.13
2018-10-02T01:40:28.881Z,7.87
2018-10-02T01:42:56.571Z,7.87
2018-10-02T01:45:23.655Z,8.06
2018-10-02T01:47:50.595Z,7.94
2018-10-02T01:50:17.511Z,7.94
2018-10-02T01:52:44.617Z,7.75
2018-10-02T01:55:11.548Z,7.94
2018-10-02T01:57:38.451Z,7.81
2018-10-02T02:00:05.708Z,8.00
2018-10-02T02:02:33.175Z,7.81
2018-10-02T02:05:00.222Z,7.87
2018-10-02T02:07:27.232Z,7.87
2018-10-02T02:09:54.996Z,7.94
2018-10-02T02:12:22.586Z,7.87
2018-10-02T02:14:49.498Z,7.69
2018-10-02T02:17:16.447Z,7.56
2018-10-02T02:19:43.353Z,7.56
2018-10-02T02:22:10.259Z,7.56
2018-10-02T02:24:37.919Z,7.87
2018-10-02T02:27:04.849Z,7.62
2018-10-02T02:29:31.793Z,7.75
2018-10-02T02:31:58.725Z,7.62
2018-10-02T02:34:25.629Z,7.87
2018-10-02T02:36:52.561Z,7.81
2018-10-02T02:39:19.471Z,7.81
2018-10-02T02:41:46.409Z,7.62
2018-10-02T02:44:13.376Z,7.87
2018-10-02T02:46:40.318Z,7.75
2018-10-02T02:49:13.065Z,7.56
2018-10-02T02:51:40.028Z,7.56
2018-10-02T02:54:06.990Z,7.62
2018-10-02T02:56:33.932Z,7.44
2018-10-02T02:59:01.000Z,7.62
2018-10-02T03:01:39.418Z,7.62
2018-10-02T03:04:07.050Z,7.62
2018-10-02T03:06:33.998Z,7.44
2018-10-02T03:09:00.882Z,7.37
2018-10-02T03:11:28.890Z,7.62
2018-10-02T03:13:55.811Z,7.69
2018-10-02T03:16:23.204Z,7.56
2018-10-02T03:18:50.113Z,7.75
2018-10-02T03:21:17.031Z,7.56
2018-10-02T03:23:43.971Z,7.44
2018-10-02T03:26:10.910Z,7.69
2018-10-02T03:28:38.388Z,7.37
2018-10-02T03:31:05.933Z,7.56
2018-10-02T03:33:32.929Z,7.25
2018-10-02T03:35:59.837Z,7.37
2018-10-02T03:38:27.316Z,7.56
2018-10-02T03:40:54.326Z,7.50
2018-10-02T03:43:21.234Z,7.37
2018-10-02T03:45:48.386Z,7.56
2018-10-02T03:48:15.804Z,7.44
2018-10-02T03:50:42.938Z,7.62
2018-10-02T03:53:09.928Z,7.50
2018-10-02T03:55:37.096Z,7.25
2018-10-02T03:58:03.982Z,7.50
2018-10-02T04:00:31.115Z,7.50
2018-10-02T04:03:00.183Z,7.06
2018-10-02T04:05:27.134Z,7.31
2018-10-02T04:07:54.014Z,7.37
2018-10-02T04:10:20.984Z,7.31
2018-10-02T04:12:48.275Z,7.37
2018-10-02T04:15:15.215Z,7.25
2018-10-02T04:17:42.144Z,7.44
2018-10-02T04:20:09.072Z,7.50
2018-10-02T04:22:36.287Z,7.25
2018-10-02T04:25:03.234Z,7.44
2018-10-02T04:27:30.144Z,7.50
2018-10-02T04:29:57.274Z,7.31
2018-10-02T04:32:24.800Z,7.44
2018-10-02T04:34:51.738Z,7.12
2018-10-02T04:37:18.674Z,7.25
2018-10-02T04:39:45.652Z,7.25
2018-10-02T04:42:12.580Z,7.31
2018-10-02T04:44:39.522Z,7.06
2018-10-02T04:47:06.455Z,7.25
2018-10-02T04:49:33.599Z,7.44
2018-10-02T04:52:00.531Z,7.25
2018-10-02T04:54:27.479Z,7.12
2018-10-02T04:56:54.620Z,7.12
2018-10-02T04:59:21.531Z,7.12
2018-10-02T05:01:48.715Z,7.12
2018-10-02T05:04:16.467Z,7.06
2018-10-02T05:06:43.470Z,7.12
2018-10-02T05:09:10.644Z,7.12
2018-10-02T05:11:37.593Z,6.94
2018-10-02T05:14:04.559Z,7.19
2018-10-02T05:16:43.877Z,7.00
2018-10-02T05:19:10.845Z,7.06
2018-10-02T05:21:37.839Z,7.37
2018-10-02T05:24:04.848Z,7.31
2018-10-02T05:26:31.824Z,7.50
2018-10-02T05:28:58.908Z,7.19
2018-10-02T05:31:25.953Z,7.31
2018-10-02T05:33:52.926Z,7.25
2018-10-02T05:36:19.948Z,7.19
2018-10-02T05:38:47.299Z,7.44
2018-10-02T05:41:14.977Z,7.31
2018-10-02T05:43:41.965Z,7.31
2018-10-02T05:46:08.999Z,7.19
2018-10-02T05:48:35.986Z,7.06
2018-10-02T05:51:03.045Z,7.31
2018-10-02T05:53:30.193Z,7.25
2018-10-02T05:55:57.397Z,7.37
2018-10-02T05:58:24.425Z,7.37
2018-10-02T06:00:51.503Z,7.50
2018-10-02T06:03:18.476Z,7.31
2018-10-02T06:05:45.505Z,7.44
2018-10-02T06:08:12.472Z,7.25
2018-10-02T06:10:39.440Z,7.37
2018-10-02T06:13:06.456Z,7.56
2018-10-02T06:15:33.400Z,7.12
2018-10-02T06:18:00.490Z,7.56
2018-10-02T06:20:27.424Z,7.56
2018-10-02T06:22:54.548Z,7.69
2018-10-02T06:25:21.515Z,7.62
2018-10-02T06:27:48.697Z,7.56
2018-10-02T06:30:16.572Z,7.87
2018-10-02T06:32:43.724Z,7.81
2018-10-02T06:35:10.634Z,7.94
2018-10-02T06:37:37.611Z,7.69
2018-10-02T06:40:04.635Z,7.94
2018-10-02T06:42:31.579Z,7.94
2018-10-02T06:44:58.985Z,8.00
2018-10-02T06:47:25.917Z,8.19
2018-10-02T06:49:52.959Z,8.13
2018-10-02T06:52:20.187Z,7.87
2018-10-02T06:54:47.249Z,8.06
2018-10-02T06:57:14.196Z,8.44
2018-10-02T06:59:41.139Z,8.38
2018-10-02T07:02:08.070Z,8.56
2018-10-02T07:04:35.321Z,8.44
2018-10-02T07:07:03.028Z,8.63
2018-10-02T07:09:30.012Z,8.81
2018-10-02T07:11:56.964Z,8.94
2018-10-02T07:14:23.895Z,9.06
2018-10-02T07:16:50.820Z,8.81
2018-10-02T07:19:17.999Z,8.81
2018-10-02T07:21:45.007Z,8.81
2018-10-02T07:24:11.917Z,8.63
2018-10-02T07:26:38.931Z,8.94
2018-10-02T07:29:06.893Z,8.88
2018-10-02T07:31:34.493Z,9.00
2018-10-02T07:34:03.512Z,8.94
2018-10-02T07:36:30.413Z,8.94
2018-10-02T07:38:57.372Z,8.94
2018-10-02T07:41:24.592Z,8.94
2018-10-02T07:43:52.110Z,8.94
2018-10-02T07:46:19.120Z,9.19
2018-10-02T07:48:46.292Z,9.13
2018-10-02T07:51:13.249Z,9.31
2018-10-02T07:53:42.591Z,9.31
2018-10-02T07:56:09.845Z,9.31
2018-10-02T07:58:39.038Z,9.31
2018-10-02T08:01:06.896Z,9.56
2018-10-02T08:03:33.809Z,9.56
2018-10-02T08:06:00.971Z,9.19
2018-10-02T08:08:28.045Z,9.38
2018-10-02T08:10:55.571Z,9.38
2018-10-02T08:13:22.717Z,9.38
2018-10-02T08:15:49.723Z,9.56
2018-10-02T08:18:16.703Z,9.63
2018-10-02T08:20:43.845Z,9.63
2018-10-02T08:23:10.814Z,10.00
2018-10-02T08:25:42.452Z,10.00
2018-10-02T08:28:09.620Z,10.00
2018-10-02T08:30:57.093Z,10.13
2018-10-02T08:33:24.180Z,10.00
2018-10-02T08:35:51.302Z,10.13
2018-10-02T08:38:18.256Z,10.38
2018-10-02T08:40:45.260Z,10.25
2018-10-02T08:43:12.260Z,10.56
2018-10-02T08:45:39.222Z,10.63
2018-10-02T08:48:06.262Z,10.63
2018-10-02T08:50:33.543Z,10.38
2018-10-02T08:53:00.597Z,10.38
2018-10-02T08:55:27.683Z,10.75
2018-10-02T08:57:54.683Z,10.81
2018-10-02T09:00:21.647Z,10.81
2018-10-02T09:02:48.587Z,10.56
2018-10-02T09:05:16.733Z,10.63
2018-10-02T09:07:43.715Z,10.88
2018-10-02T09:10:10.667Z,10.94
2018-10-02T09:12:37.870Z,10.94
2018-10-02T09:15:04.949Z,10.75
2018-10-02T09:17:31.909Z,10.81
2018-10-02T09:19:58.999Z,10.69
2018-10-02T09:22:26.764Z,10.75
2018-10-02T09:24:53.761Z,10.94
2018-10-02T09:27:20.737Z,11.12
2018-10-02T09:29:53.471Z,10.88
2018-10-02T09:32:26.243Z,11.19
2018-10-02T09:34:59.855Z,11.19
2018-10-02T09:37:33.457Z,11.50
2018-10-02T09:40:06.208Z,11.12
2018-10-02T09:42:38.925Z,11.00
2018-10-02T09:45:05.983Z,11.19
2018-10-02T09:47:32.923Z,11.31
2018-10-02T09:49:59.880Z,11.31
2018-10-02T09:52:26.798Z,11.56
2018-10-02T09:54:53.848Z,11.69
2018-10-02T09:57:20.803Z,11.63
2018-10-02T09:59:47.772Z,11.38
2018-10-02T10:02:20.441Z,11.56
2018-10-02T10:04:48.028Z,11.38
2018-10-02T10:07:15.029Z,11.31
2018-10-02T10:09:42.200Z,11.63
2018-10-02T10:12:09.113Z,11.63
2018-10-02T10:14:36.082Z,11.44
2018-10-02T10:17:03.096Z,11.44
2018-10-02T10:19:29.966Z,11.63
2018-10-02T10:21:56.884Z,11.44
2018-10-02T10:24:23.811Z,11.38
2018-10-02T10:26:50.774Z,11.56
2018-10-02T10:29:17.910Z,11.63
2018-10-02T10:31:44.932Z,11.63
2018-10-02T10:34:11.941Z,11.69
2018-10-02T10:36:38.904Z,11.63
2018-10-02T10:39:07.282Z,11.75
2018-10-02T10:41:34.246Z,11.63
2018-10-02T10:44:01.322Z,11.94
2018-10-02T10:46:28.305Z,11.75
2018-10-02T10:48:55.253Z,11.50
2018-10-02T10:51:22.160Z,11.63
2018-10-02T10:53:49.078Z,12.00
2018-10-02T10:56:16.040Z,11.69
2018-10-02T10:58:43.118Z,11.63
2018-10-02T11:01:09.912Z,11.94
2018-10-02T11:03:36.927Z,11.63
2018-10-02T11:06:03.888Z,11.38
2018-10-02T11:08:30.815Z,11.38
2018-10-02T11:10:57.825Z,11.25
2018-10-02T11:13:24.727Z,11.31
2018-10-02T11:15:51.667Z,11.63
2018-10-02T11:18:19.384Z,11.63
2018-10-02T11:20:46.373Z,11.50
2018-10-02T11:23:13.424Z,11.31
2018-10-02T11:25:40.451Z,11.38
2018-10-02T11:28:07.386Z,11.25
2018-10-02T11:30:34.428Z,11.25
2018-10-02T11:33:02.219Z,11.31
2018-10-02T11:35:29.235Z,11.19
2018-10-02T11:37:56.183Z,10.94
2018-10-02T11:40:23.145Z,11.12
2018-10-02T11:42:50.050Z,10.75
2018-10-02T11:45:17.067Z,10.88
2018-10-02T11:47:44.095Z,10.75
2018-10-02T11:50:11.178Z,10.69
2018-10-02T11:52:38.152Z,10.81
2018-10-02T11:55:05.631Z,10.69
2018-10-02T11:57:32.701Z,10.81
2018-10-02T11:59:59.644Z,10.94
2018-10-02T12:02:27.143Z,10.75
2018-10-02T12:04:54.136Z,10.75
2018-10-02T12:07:21.089Z,10.38
2018-10-02T12:09:48.072Z,10.50
2018-10-02T12:12:15.696Z,10.31
2018-10-02T12:14:42.683Z,10.44
2018-10-02T12:17:09.652Z,10.75
2018-10-02T12:19:36.688Z,10.75
2018-10-02T12:22:03.602Z,10.56
2018-10-02T12:24:30.540Z,10.56
2018-10-02T12:26:57.562Z,10.50
2018-10-02T12:29:24.546Z,10.38
2018-10-02T12:31:51.546Z,10.69
2018-10-02T12:34:18.508Z,10.50
2018-10-02T12:36:45.476Z,10.44
2018-10-02T12:39:12.431Z,10.38
2018-10-02T12:41:39.411Z,10.38
2018-10-02T12:44:06.358Z,10.50
2018-10-02T12:46:33.399Z,10.19
2018-10-02T12:49:01.355Z,10.25
2018-10-02T12:51:28.352Z,10.13
2018-10-02T12:53:55.291Z,10.13
2018-10-02T12:56:22.281Z,10.25
2018-10-02T12:58:49.196Z,10.25
2018-10-02T13:01:16.166Z,10.31
2018-10-02T13:03:43.097Z,10.31
2018-10-02T13:06:10.064Z,10.13
2018-10-02T13:08:37.096Z,10.13
2018-10-02T13:11:04.006Z,10.13
2018-10-02T13:13:30.952Z,10.13
2018-10-02T13:15:58.104Z,9.88
2018-10-02T13:18:25.040Z,10.00
2018-10-02T13:20:51.972Z,10.06
2018-10-02T13:23:18.944Z,10.06
2018-10-02T13:25:45.970Z,9.88
2018-10-02T13:28:12.909Z,9.63
2018-10-02T13:30:39.877Z,9.63
2018-10-02T13:33:06.815Z,9.69
2018-10-02T13:35:33.767Z,9.75
2018-10-02T13:38:01.260Z,9.69
2018-10-02T13:40:28.317Z,9.44
2018-10-02T13:42:55.315Z,9.50
2018-10-02T13:45:22.366Z,9.44
2018-10-02T13:47:49.404Z,9.44
2018-10-02T13:50:16.309Z,9.38
2018-10-02T13:52:43.472Z,9.31
2018-10-02T13:55:10.488Z,9.38
2018-10-02T13:57:37.418Z,9.31
2018-10-02T14:00:04.390Z,9.31
2018-10-02T14:02:31.706Z,9.44
2018-10-02T14:04:58.680Z,9.44
2018-10-02T14:07:25.602Z,9.44
2018-10-02T14:09:52.535Z,9.19
2018-10-02T14:12:19.490Z,9.06
2018-10-02T14:14:46.479Z,9.00
2018-10-02T14:17:13.399Z,9.00
2018-10-02T14:19:40.356Z,9.19
2018-10-02T14:22:07.300Z,9.00
2018-10-02T14:24:34.242Z,8.94
2018-10-02T14:27:01.352Z,9.19
2018-10-02T14:29:28.313Z,9.06
2018-10-02T14:31:55.391Z,9.13
2018-10-02T14:34:22.371Z,8.94
2018-10-02T14:36:49.917Z,9.06
2018-10-02T14:39:16.836Z,9.06
2018-10-02T14:41:43.895Z,9.06
2018-10-02T14:44:11.689Z,9.06
2018-10-02T14:46:39.318Z,9.06
2018-10-02T14:49:06.334Z,9.06
2018-10-02T14:51:33.268Z,9.06
2018-10-02T14:54:00.706Z,9.19
2018-10-02T14:56:28.435Z,9.06
2018-10-02T14:58:55.381Z,9.00
2018-10-02T15:01:22.441Z,9.06
2018-10-02T15:03:49.363Z,9.06
2018-10-02T15:06:16.370Z,9.06
2018-10-02T15:08:43.345Z,9.25
2018-10-02T15:11:10.269Z,9.13
2018-10-02T15:13:37.184Z,9.06
2018-10-02T15:16:04.119Z,9.25
2018-10-02T15:18:31.219Z,9.06
2018-10-02T15:20:58.811Z,9.13
2018-10-02T15:23:25.813Z,8.94
2018-10-02T15:25:52.769Z,8.94
2018-10-02T15:28:19.727Z,8.94
2018-10-02T15:30:46.819Z,8.81
2018-10-02T15:33:13.805Z,8.88
2018-10-02T15:35:40.779Z,8.94
2018-10-02T15:38:07.788Z,8.94
2018-10-02T15:40:34.759Z,8.88
2018-10-02T15:43:01.791Z,9.06
2018-10-02T15:45:29.724Z,9.00
2018-10-02T15:47:56.728Z,9.06
2018-10-02T15:50:23.683Z,8.94
2018-10-02T15:52:50.668Z,9.06
2018-10-02T15:55:17.588Z,9.13
2018-10-02T15:57:45.127Z,9.06
2018-10-02T16:00:12.171Z,8.94
2018-10-02T16:02:40.045Z,9.13
2018-10-02T16:05:07.023Z,9.00
2018-10-02T16:07:34.049Z,9.00
2018-10-02T16:10:01.044Z,9.00
2018-10-02T16:12:28.025Z,9.06
2018-10-02T16:14:54.999Z,9.13
2018-10-02T16:17:22.028Z,9.13
2018-10-02T16:19:49.007Z,9.13
2018-10-02T16:22:15.976Z,9.13
2018-10-02T16:24:42.964Z,9.13
2018-10-02T16:27:09.920Z,9.25
2018-10-02T16:29:36.798Z,9.25
2018-10-02T16:32:05.052Z,9.25
2018-10-02T16:34:32.089Z,9.50
2018-10-02T16:36:59.791Z,9.38
2018-10-02T16:39:26.736Z,9.38
2018-10-02T16:41:53.680Z,9.44
2018-10-02T16:44:20.629Z,9.38
2018-10-02T16:46:47.648Z,9.38
2018-10-02T16:49:14.670Z,9.44
2018-10-02T16:51:42.239Z,9.31
2018-10-02T16:54:09.306Z,9.19
2018-10-02T16:56:36.360Z,9.19
2018-10-02T16:59:03.364Z,9.44
2018-10-02T17:01:30.580Z,9.44
2018-10-02T17:03:57.722Z,9.44
2018-10-02T17:06:24.681Z,9.56
2018-10-02T17:08:51.667Z,9.44
2018-10-02T17:11:18.705Z,9.38
2018-10-02T17:13:45.664Z,9.63
2018-10-02T17:16:12.625Z,9.63
2018-10-02T17:18:40.144Z,9.81
2018-10-02T17:21:07.153Z,9.75
2018-10-02T17:23:34.188Z,9.50
2018-10-02T17:26:01.212Z,9.50
2018-10-02T17:28:28.170Z,9.44
2018-10-02T17:30:55.148Z,9.44
2018-10-02T17:33:22.116Z,9.75
2018-10-02T17:35:49.064Z,9.63
2018-10-02T17:38:16.059Z,9.69
2018-10-02T17:40:43.066Z,9.56
2018-10-02T17:43:10.044Z,9.75
2018-10-02T17:45:37.107Z,9.81
2018-10-02T17:48:04.692Z,9.75
2018-10-02T17:50:31.667Z,9.44
2018-10-02T17:52:58.809Z,9.56
2018-10-02T17:55:25.807Z,9.63
2018-10-02T17:57:52.803Z,9.75
2018-10-02T18:00:20.017Z,9.63
2018-10-02T18:02:47.101Z,9.81
2018-10-02T18:05:14.155Z,9.63
2018-10-02T18:07:41.239Z,9.50
2018-10-02T18:10:08.355Z,9.88
2018-10-02T18:12:35.381Z,9.81
2018-10-02T18:15:02.431Z,9.88
2018-10-02T18:17:29.685Z,9.81
2018-10-02T18:19:56.630Z,9.69
2018-10-02T18:22:23.668Z,9.63
2018-10-02T18:24:50.710Z,9.75
2018-10-02T18:27:17.751Z,10.00
2018-10-02T18:29:44.750Z,9.81
2018-10-02T18:32:11.760Z,9.69
2018-10-02T18:34:38.766Z,9.88
2018-10-02T18:37:06.029Z,9.88
2018-10-02T18:39:33.128Z,9.88
2018-10-02T18:42:00.091Z,9.81
2018-10-02T18:44:27.105Z,10.06
2018-10-02T18:46:54.088Z,10.06
2018-10-02T18:49:21.097Z,10.00
2018-10-02T18:51:48.755Z,9.88
2018-10-02T18:54:15.735Z,10.00
2018-10-02T18:56:42.986Z,10.00
2018-10-02T18:59:09.878Z,10.06
2018-10-02T19:01:37.558Z,10.19
2018-10-02T19:04:04.520Z,10.06
2018-10-02T19:06:31.543Z,10.31
2018-10-02T19:09:04.614Z,10.25
2018-10-02T19:11:37.300Z,10.13
2018-10-02T19:14:04.362Z,10.38
2018-10-02T19:16:33.108Z,10.06
2018-10-02T19:19:00.136Z,10.25
2018-10-02T19:21:27.626Z,10.31
2018-10-02T19:23:54.629Z,10.06
2018-10-02T19:26:23.690Z,10.13
2018-10-02T19:28:50.975Z,10.06
2018-10-02T19:31:23.711Z,10.38
2018-10-02T19:33:50.893Z,10.50
2018-10-02T19:36:17.989Z,10.44
2018-10-02T19:39:21.813Z,10.31
2018-10-02T19:41:49.029Z,10.38
2018-10-02T19:44:15.972Z,10.25
2018-10-02T19:46:47.199Z,10.44
2018-10-02T19:49:17.423Z,10.31
2018-10-02T19:51:51.463Z,10.44
2018-10-02T19:54:18.452Z,10.44
2018-10-02T19:56:45.930Z,10.44
2018-10-02T19:59:12.936Z,10.56
2018-10-02T20:01:39.937Z,10.69
2018-10-02T20:04:07.052Z,10.69
2018-10-02T20:06:34.310Z,10.69
2018-10-02T20:09:01.350Z,10.69
2018-10-02T20:11:28.333Z,10.75
2018-10-02T20:13:55.495Z,10.81
2018-10-02T20:16:22.518Z,10.69
2018-10-02T20:18:49.698Z,10.63
2018-10-02T20:21:16.797Z,11.00
2018-10-02T20:23:43.769Z,10.94
2018-10-02T20:26:11.044Z,10.69
2018-10-02T20:28:38.049Z,10.75
2018-10-02T20:31:05.167Z,10.94
2018-10-02T20:33:32.217Z,11.00
2018-10-02T20:35:59.309Z,10.94
2018-10-02T20:38:26.477Z,10.94
2018-10-02T20:40:53.536Z,10.81
2018-10-02T20:43:21.308Z,10.88
2018-10-02T20:45:49.409Z,11.12
2018-10-02T20:48:17.258Z,11.00
2018-10-02T20:50:44.978Z,10.94
2018-10-02T20:53:11.960Z,11.06
2018-10-02T20:55:39.257Z,11.06
2018-10-02T20:58:06.308Z,11.00
2018-10-02T21:00:33.330Z,10.81
2018-10-02T21:03:00.286Z,11.06
2018-10-02T21:05:27.267Z,10.94
2018-10-02T21:07:54.317Z,10.88
2018-10-02T21:10:21.397Z,10.94
2018-10-02T21:12:48.373Z,11.06
2018-10-02T21:15:15.395Z,11.12
2018-10-02T21:17:42.321Z,10.94
2018-10-02T21:20:10.298Z,10.94
2018-10-02T21:22:37.159Z,10.94
2018-10-02T21:25:04.323Z,10.75
2018-10-02T21:27:31.321Z,11.00
2018-10-02T21:29:58.983Z,10.75
2018-10-02T21:32:25.967Z,10.69
2018-10-02T21:34:52.933Z,10.94
2018-10-02T21:37:19.924Z,11.00
2018-10-02T21:39:46.969Z,10.81
2018-10-02T21:42:13.954Z,10.81
2018-10-02T21:44:40.931Z,10.75
2018-10-02T21:47:08.936Z,10.81
2018-10-02T21:49:35.908Z,10.69
2018-10-02T21:52:02.846Z,10.88
2018-10-02T21:54:29.803Z,10.81
2018-10-02T21:56:56.830Z,11.00
2018-10-02T21:59:23.761Z,10.81
2018-10-02T22:01:50.691Z,10.94
2018-10-02T22:04:17.639Z,11.00
2018-10-02T22:06:44.794Z,10.88
2018-10-02T22:09:11.704Z,10.69
2018-10-02T22:11:38.703Z,10.69
2018-10-02T22:14:05.748Z,11.06
2018-10-02T22:16:32.728Z,11.00
2018-10-02T22:18:59.830Z,10.81
2018-10-02T22:21:27.652Z,10.81
2018-10-02T22:23:54.683Z,11.25
2018-10-02T22:26:21.709Z,11.06
2018-10-02T22:28:48.840Z,10.81
2018-10-02T22:31:15.790Z,11.06
2018-10-02T22:33:42.869Z,10.88
2018-10-02T22:36:09.743Z,10.88
2018-10-02T22:38:36.736Z,10.81
2018-10-02T22:41:03.679Z,10.94
2018-10-02T22:43:30.630Z,10.94
2018-10-02T22:45:57.730Z,10.75
2018-10-02T22:48:24.674Z,11.12
2018-10-02T22:50:51.621Z,11.06
2018-10-02T22:53:18.550Z,11.12
2018-10-02T22:55:45.488Z,11.31
2018-10-02T22:58:12.513Z,11.25
2018-10-02T23:00:39.447Z,11.38
2018-10-02T23:03:06.405Z,11.25
2018-10-02T23:05:33.575Z,11.00
2018-10-02T23:08:00.684Z,11.31
2018-10-02T23:10:27.655Z,11.31
2018-10-02T23:12:54.615Z,11.19
2018-10-02T23:15:21.635Z,11.31
2018-10-02T23:17:48.599Z,11.19
2018-10-02T23:20:15.548Z,11.38
2018-10-02T23:22:43.235Z,11.12
2018-10-02T23:25:10.230Z,11.19
2018-10-02T23:27:37.228Z,11.19
2018-10-02T23:30:04.323Z,11.31
2018-10-02T23:32:31.308Z,11.12
2018-10-02T23:34:58.388Z,11.25
2018-10-02T23:37:25.377Z,11.44
2018-10-02T23:39:52.340Z,11.63
2018-10-02T23:42:19.988Z,11.38
2018-10-02T23:44:46.932Z,11.25
2018-10-02T23:47:14.599Z,11.50
2018-10-02T23:49:41.592Z,11.31
2018-10-02T23:52:08.527Z,11.25
2018-10-02T23:54:35.451Z,11.38
2018-10-02T23:57:02.473Z,11.31
2018-10-02T23:59:29.401Z,11.38
